メインページ
METAR-TAF:

METAR-TAF

空港 :

ファアモツ国際空港

トンガタプ島, トンガ

緯度: 21-14S, 経度: 175-09W, 海抜: 38m

現時点の気象観測

当レポートは35分前の20:00(UTC)に作成
東/北東の風 6kt
気温 26°C
湿度 94%
気圧 1008 hPa
視程10km以上
高度600ftの雲は散在している
高度1600ftの千切れ雲あり
高度11000ftの千切れ雲あり

METAR: NFTF 152000Z 06006KT 9999 SCT006 BKN016 BKN110 26/25 Q1008

時間: 10:35 (20:35 UTC)

予報

当レポートは3時間28分前の17:07(UTC)に作成
予報は15日の 18時(UTC)から 16日の 18時(UTC)まで有効
の風 7kt
視程10km以上
高度900ftの雲はほとんどない
高度1600ftの雲は散在している
高度10000ftの千切れ雲あり
弱いにわか雨
確率 30% :
15日の 18時(UTC)から 16日の 12時(UTC)まで一時的に
視程: 5000m
高度800ftの雲はほとんどない
高度1500ftの千切れ雲あり
にわか雨

TAF: NFTF 151707Z 1518/1618 08007KT 9999 -SHRA FEW009 SCT016 BKN100 PROB30 TEMPO 1518/1612 5000 SHRA FEW008 BKN015

4,000以上の空港の気象観測と天気予報(METAR報とTAF報)

利用可能な観測所は地図上に黄色い丸と赤い丸で示す。

丸の上にカーソルを重ねると観測所名を参照できる。

次にクリックすると気象観測と天気予報を参照できる。

マップの切り替え:黒色「×」印の緑ボタンをクリックして拡大、「-」印の緑ボタンをクリックして縮小、緑色の三角印をクリックして隣りの地図に切り替え


METAR-TAF: